Andrew, Canada
Current Conditions -  °F | °C
As of 11:00 PM on Sunday 25 Jan 2015 (Local Time) from CYED Reporting Station
Broken Clouds Broken Clouds  
Wind Chill: 34°   Ceiling: 9200
Heat Index: 39°   Visibility: 9mi
Dew Point: 27°   Wind: 7mph
Humidity: 61%   Direction: 270°W
Pressure: 29.81"   Gusts: NA
Location:  53.88°N, 112.33°W
Report Text: CYED 260600Z AUTO 27006KT 9SM SCT058 BKN092 04/M03 A2981 RMKSLP117
Loading
Personal Weather Stations






























Interactive Weather Map New forecast layout! Learn more

10-Day Weather Forecast

Advertisements
Track Severe Weather on mobile